DW3253 Tampa FL US current weather conditions

sailwx.info

Wind from 086 at 6 knots gusting 10

Air temperature 23.9° C
Dewpoint 22.3° C

Last reported at 2019-Sep-19 08:05 UTC.
Time now 2019-Sep-19 08:59 UTC

Location: N 27°57' W 082°28'.
View on Google Maps.

See reports from other nearby stations

  
Tides and Currents Weather Stations Pressure Air Temp Water Temp Dewpoint Dewpoint Depression Visibility Wind Speed Wind Dir Waves Ship Positions
date/time (UTC)wind fromknots sea level pressurealtimeterstation pressurevisibilityair tempwater tempwave heightnotes
2019-Sep-19 08:05 086 6 gusting 10 23.9
2019-Sep-19 07:55 076 5 gusting 9 23.9
2019-Sep-19 07:45 091 6 gusting 10 23.9
2019-Sep-19 07:35 081 6 gusting 10 23.9
2019-Sep-19 07:25 074 6 gusting 9 24.4
2019-Sep-19 07:15 087 6 gusting 12 24.4
2019-Sep-19 07:05 086 6 gusting 11 24.4
2019-Sep-19 06:55 092 7 gusting 13 24.4
2019-Sep-19 06:45 092 7 gusting 12 24.4
2019-Sep-19 06:35 094 7 gusting 11 24.4
2019-Sep-19 06:25 083 6 gusting 11 24.4
2019-Sep-19 06:15 118 8 gusting 13 24.4
2019-Sep-19 06:05 096 8 gusting 13 24.4
2019-Sep-19 05:55 065 6 gusting 13 24.4
2019-Sep-19 05:45 084 6 gusting 11 24.4
2019-Sep-19 05:35 061 6 gusting 10 24.4
2019-Sep-19 05:25 080 6 gusting 9 24.4
2019-Sep-19 05:15 072 6 gusting 10 24.4
2019-Sep-19 05:05 071 6 gusting 11 25.0
2019-Sep-19 04:55 069 5 gusting 8 25.0
2019-Sep-19 04:45 054 4 gusting 8 25.0
2019-Sep-19 04:35 057 6 gusting 10 25.0
2019-Sep-19 04:25 052 6 gusting 11 25.0
2019-Sep-19 04:15 051 6 gusting 10 25.0
2019-Sep-19 04:05 069 6 gusting 11 25.0
2019-Sep-19 03:55 136 6 gusting 8 25.0
2019-Sep-19 03:45 037 7 gusting 12 25.0
2019-Sep-19 03:35 088 7 gusting 11 25.0
2019-Sep-19 03:25 074 9 gusting 13 25.0
2019-Sep-19 03:15 077 6 gusting 9 25.6
2019-Sep-19 03:05 061 4 gusting 6 25.6
2019-Sep-19 02:55 064 5 gusting 7 25.6
2019-Sep-19 02:45 078 4 gusting 8 25.6
2019-Sep-19 02:35 055 6 gusting 10 25.6
2019-Sep-19 02:25 052 6 gusting 11 25.6
2019-Sep-19 02:15 081 4 gusting 7 25.6
2019-Sep-19 02:05 030 4 gusting 6 25.6
2019-Sep-19 01:55 005 4 gusting 7 26.1
2019-Sep-19 01:45 076 4 gusting 8 26.1
2019-Sep-19 01:35 071 5 gusting 7 26.1
2019-Sep-19 01:25 058 5 gusting 9 26.1
2019-Sep-19 01:15 078 4 gusting 6 25.6
2019-Sep-19 01:05 088 5 gusting 9 25.6
2019-Sep-19 00:55 081 6 gusting 9 25.6
2019-Sep-19 00:45 072 7 gusting 10 25.6
2019-Sep-19 00:35 073 4 gusting 7 25.6
2019-Sep-19 00:25 107 5 gusting 7 25.6
2019-Sep-19 00:15 090 3 gusting 6 25.6
2019-Sep-19 00:05 132 4 gusting 6 25.0
2019-Sep-18 23:55 089 5 gusting 8 25.0
2019-Sep-18 23:45 118 6 gusting 8 24.4
2019-Sep-18 23:35 117 6 gusting 14 23.9
2019-Sep-18 23:25 110 13 gusting 23 23.3
2019-Sep-18 23:15 089 21 gusting 40 23.3
2019-Sep-18 23:05 076 18 gusting 39 25.0
2019-Sep-18 22:55 058 5 gusting 20 28.3
2019-Sep-18 22:45 295 6 gusting 12 28.3
2019-Sep-18 22:35 286 8 gusting 19 28.9
2019-Sep-18 22:25 343 5 gusting 13 30.6
2019-Sep-18 22:15 059 2 gusting 6 31.7
2019-Sep-18 22:05 143 3 gusting 6 31.7
2019-Sep-18 21:55 163 3 gusting 9 32.2
2019-Sep-18 21:45 095 4 gusting 7 32.2
2019-Sep-18 21:35 093 6 gusting 11 31.7
2019-Sep-18 21:25 086 5 gusting 14 32.2
2019-Sep-18 21:15 117 5 gusting 8 32.2
2019-Sep-18 21:05 120 3 gusting 8 32.8
2019-Sep-18 20:55 165 6 gusting 9 32.2
2019-Sep-18 20:45 103 6 gusting 10 32.2
2019-Sep-18 20:35 119 5 gusting 9 31.7
2019-Sep-18 20:25 156 6 gusting 13 31.7
2019-Sep-18 20:15 138 6 gusting 12 31.7
2019-Sep-18 20:05 136 5 gusting 13 32.8
2019-Sep-18 19:55 219 1 gusting 5 33.9
2019-Sep-18 19:45 136 3 gusting 6 33.9
2019-Sep-18 19:35 070 2 gusting 6 33.3
2019-Sep-18 19:25 088 1 gusting 5 34.4
2019-Sep-18 19:15 304 1 gusting 4 34.4
2019-Sep-18 19:05 304 2 gusting 6 34.4
2019-Sep-18 18:55 136 2 gusting 5 34.4
2019-Sep-18 18:45 130 3 gusting 7 33.3
2019-Sep-18 18:35 065 2 gusting 7 34.4
2019-Sep-18 18:25 072 2 gusting 8 34.4
2019-Sep-18 18:15 058 2 gusting 7 35.0
2019-Sep-18 18:05 136 3 gusting 6 35.6
2019-Sep-18 17:55 138 4 gusting 8 35.6
2019-Sep-18 17:45 200 3 gusting 6 35.0
2019-Sep-18 17:35 164 6 gusting 9 33.3
2019-Sep-18 17:25 087 3 gusting 10 33.9
2019-Sep-18 17:15 071 4 gusting 8 33.3
2019-Sep-18 17:05 068 3 gusting 6 33.3
2019-Sep-18 16:55 118 3 gusting 8 32.8
2019-Sep-18 16:45 105 4 gusting 7 32.2
2019-Sep-18 16:35 034 4 gusting 8 31.1
2019-Sep-18 16:25 077 2 gusting 7 32.2
2019-Sep-18 16:15 179 4 gusting 9 31.1
2019-Sep-18 16:05 098 3 gusting 8 31.1
2019-Sep-18 15:55 130 5 gusting 10 30.6
2019-Sep-18 15:45 051 5 gusting 10 30.0
2019-Sep-18 15:35 033 5 gusting 9 30.0
2019-Sep-18 15:25 084 6 gusting 9 29.4
2019-Sep-18 15:15 080 5 gusting 10 29.4
2019-Sep-18 15:05 075 7 gusting 12 28.9
2019-Sep-18 14:55 117 6 gusting 9 28.9
2019-Sep-18 14:45 038 6 gusting 11 28.3
2019-Sep-18 14:35 078 7 gusting 12 28.3
2019-Sep-18 14:25 048 4 gusting 8 28.3
2019-Sep-18 14:15 111 5 gusting 9 27.8
2019-Sep-18 14:05 089 5 gusting 9 27.8
2019-Sep-18 13:55 065 4 gusting 9 27.8
2019-Sep-18 13:45 086 2 gusting 9 27.8
2019-Sep-18 13:35 033 3 gusting 6 27.2
2019-Sep-18 13:25 080 3 gusting 7 26.7
2019-Sep-18 13:15 017 3 gusting 7 26.7
2019-Sep-18 13:05 063 3 gusting 6 26.7
2019-Sep-18 12:55 036 2 gusting 5 26.1
2019-Sep-18 12:45 028 3 gusting 7 25.6
2019-Sep-18 12:35 040 3 gusting 6 24.4
2019-Sep-18 12:25 005 3 gusting 6 24.4
2019-Sep-18 12:15 021 2 gusting 3 23.9
2019-Sep-18 12:05 005 2 gusting 6 23.9
2019-Sep-18 11:55 005 2 gusting 6 23.3
2019-Sep-18 11:45 23.3
2019-Sep-18 11:35 005 3 gusting 6 23.3
2019-Sep-18 11:25 005 2 gusting 4 23.9
2019-Sep-18 11:15 014 2 gusting 3 23.9
2019-Sep-18 11:05 015 2 gusting 3 23.9
2019-Sep-18 10:55 005 2 gusting 4 23.9
2019-Sep-18 10:45 005 1 gusting 3 23.9
2019-Sep-18 10:35 005 2 gusting 3 23.9
2019-Sep-18 10:25 005 2 gusting 3 24.4
2019-Sep-18 10:15 013 2 gusting 4 24.4
2019-Sep-18 10:05 030 2 gusting 3 24.4
2019-Sep-18 09:55 034 1 gusting 3 24.4
2019-Sep-18 09:45 042 1 gusting 2 24.4
2019-Sep-18 09:35 042 1 gusting 2 24.4
2019-Sep-18 09:25 042 25.0
2019-Sep-18 09:15 042 1 gusting 2 25.0
2019-Sep-18 09:05 042 1 gusting 2 25.0
2019-Sep-18 08:55 042 1 gusting 2 25.0
2019-Sep-18 08:45 042 1 gusting 2 25.0
2019-Sep-18 08:35 047 0 gusting 2 25.6
2019-Sep-18 08:25 055 1 gusting 2 25.6
2019-Sep-18 08:15 055 1 gusting 3 25.6
2019-Sep-18 08:05 055 2 gusting 3 25.6
2019-Sep-18 07:55 064 2 gusting 4 25.6
2019-Sep-18 07:45 022 2 gusting 4 25.6
2019-Sep-18 07:35 028 2 gusting 4 26.1
2019-Sep-18 07:25 045 2 gusting 3 26.7
2019-Sep-18 07:15 052 2 gusting 3 26.7
2019-Sep-18 07:05 070 2 gusting 4 26.7
2019-Sep-18 06:55 068 2 gusting 4 26.7
2019-Sep-18 06:45 068 3 gusting 4 26.7
2019-Sep-18 06:35 068 3 gusting 4 26.7
2019-Sep-18 06:25 063 3 gusting 5 26.7
2019-Sep-18 06:15 057 3 gusting 5 27.2
2019-Sep-18 06:05 062 3 gusting 5 27.2
2019-Sep-18 05:54 060 3 gusting 5 27.2
2019-Sep-18 05:45 061 3 gusting 5 27.2
2019-Sep-18 05:34 053 2 gusting 4 27.8
2019-Sep-18 05:24 066 3 gusting 5 27.8
2019-Sep-18 05:14 057 4 gusting 6 27.8
2019-Sep-18 05:04 058 4 gusting 6 27.8
2019-Sep-18 04:54 061 4 gusting 6 27.8
2019-Sep-18 04:44 061 4 gusting 6 27.8
2019-Sep-18 04:34 059 3 gusting 6 27.2
2019-Sep-18 04:24 070 1 gusting 4 27.2
2019-Sep-18 04:14 026 1 gusting 2 27.2
2019-Sep-18 04:04 028 0 gusting 2 27.2
2019-Sep-18 03:54 028 1 gusting 3 27.8
2019-Sep-18 03:44 021 1 gusting 4 27.8
2019-Sep-18 03:34 027 1 gusting 4 27.8
2019-Sep-18 03:24 056 2 gusting 4 27.8
2019-Sep-18 03:14 012 3 gusting 5 27.8
2019-Sep-18 03:04 017 2 gusting 4 28.3
2019-Sep-18 02:54 005 3 gusting 4 28.3
2019-Sep-18 02:44 355 2 gusting 4 28.3
2019-Sep-18 02:34 337 3 gusting 6 28.3
2019-Sep-18 02:24 018 4 gusting 6 28.3
2019-Sep-18 02:14 010 5 gusting 7 28.3
2019-Sep-18 02:04 011 5 gusting 8 28.3
2019-Sep-18 01:54 347 4 gusting 8 28.9
2019-Sep-18 01:44 355 4 gusting 7 28.9
2019-Sep-18 01:34 355 4 gusting 8 28.9
2019-Sep-18 01:24 347 4 gusting 7 28.9
2019-Sep-18 01:14 023 5 gusting 8 29.4
2019-Sep-18 01:04 014 4 gusting 8 29.4
2019-Sep-18 00:54 046 2 gusting 6 29.4
2019-Sep-18 00:44 044 2 gusting 9 29.4
2019-Sep-18 00:34 211 3 gusting 9 30.0
2019-Sep-18 00:24 292 4 gusting 8 30.0
2019-Sep-18 00:14 010 3 gusting 9 30.0
2019-Sep-18 00:04 046 4 gusting 10 30.6
2019-Sep-17 23:54 303 4 gusting 10 30.6
2019-Sep-17 23:44 333 4 gusting 9 30.6
2019-Sep-17 23:34 336 3 gusting 7 31.1
2019-Sep-17 23:24 309 4 gusting 11 31.1
2019-Sep-17 23:14 097 4 gusting 11 31.7
2019-Sep-17 23:04 333 4 gusting 12 31.7
2019-Sep-17 22:54 231 6 gusting 12 31.7
2019-Sep-17 22:44 297 6 gusting 13 32.2
2019-Sep-17 22:34 223 4 gusting 9 32.2
2019-Sep-17 22:24 281 6 gusting 12 32.2
2019-Sep-17 22:14 300 7 gusting 13 32.2
2019-Sep-17 22:04 311 8 gusting 17 32.2
2019-Sep-17 21:54 301 7 gusting 14 32.8
2019-Sep-17 21:44 005 6 gusting 12 33.3
2019-Sep-17 21:34 037 8 gusting 16 32.8
2019-Sep-17 21:24 335 7 gusting 18 33.3
2019-Sep-17 21:14 340 6 gusting 13 33.3
2019-Sep-17 21:04 250 7 gusting 17 33.3
2019-Sep-17 20:54 292 8 gusting 15 33.3
2019-Sep-17 20:44 323 6 gusting 14 33.3
2019-Sep-17 20:34 302 6 gusting 14 33.3
2019-Sep-17 20:24 018 7 gusting 15 33.3
2019-Sep-17 20:14 274 7 gusting 14 33.3
2019-Sep-17 20:04 33.9
2019-Sep-17 19:54 336 7 gusting 15 33.3
2019-Sep-17 19:44 342 7 gusting 14 33.9
2019-Sep-17 19:34 348 7 gusting 15 33.9
2019-Sep-17 19:24 348 7 gusting 14 33.9
2019-Sep-17 19:14 005 8 gusting 14 33.3
2019-Sep-17 19:04 355 6 gusting 14 33.9
2019-Sep-17 18:54 054 7 gusting 15 33.9
2019-Sep-17 18:44 014 4 gusting 13 34.4
2019-Sep-17 18:34 306 5 gusting 12 33.9
2019-Sep-17 18:24 062 7 gusting 15 33.9
2019-Sep-17 18:14 050 6 gusting 12 33.3
2019-Sep-17 18:04 140 7 gusting 16 33.3
2019-Sep-17 17:54 045 7 gusting 15 33.3
2019-Sep-17 17:44 355 8 gusting 15 33.3
2019-Sep-17 17:34 307 5 gusting 13 33.9
2019-Sep-17 17:24 351 8 gusting 14 33.3
2019-Sep-17 17:14 348 6 gusting 14 33.3
2019-Sep-17 17:04 050 6 gusting 14 33.3
2019-Sep-17 16:54 022 8 gusting 14 32.8
2019-Sep-17 16:44 061 6 gusting 12 32.8
2019-Sep-17 16:34 005 6 gusting 14 32.8
2019-Sep-17 16:24 017 5 gusting 10 32.8
2019-Sep-17 16:14 321 4 gusting 10 33.3
2019-Sep-17 16:04 342 5 gusting 12 32.8
2019-Sep-17 15:54 329 5 gusting 11 32.8
2019-Sep-17 15:44 116 4 gusting 9 32.2
2019-Sep-17 15:34 31.7
2019-Sep-17 15:24 286 4 gusting 8 31.7
2019-Sep-17 15:14 349 4 gusting 10 31.1
2019-Sep-17 15:04 182 4 gusting 9 31.1
2019-Sep-17 14:54 305 4 gusting 9 31.1
2019-Sep-17 14:44 016 4 gusting 10 30.6
2019-Sep-17 14:34 283 4 gusting 8 30.0
2019-Sep-17 14:24 324 4 gusting 10 30.0
2019-Sep-17 14:14 315 5 gusting 10 30.0
2019-Sep-17 14:04 030 2 gusting 10 30.0
2019-Sep-17 13:54 042 4 gusting 9 29.4
2019-Sep-17 13:44 312 2 gusting 8 29.4
2019-Sep-17 13:34 294 3 gusting 7 28.9
2019-Sep-17 13:24 328 3 gusting 6 28.3
2019-Sep-17 13:14 300 2 gusting 6 28.3
2019-Sep-17 13:04 328 1 gusting 4 27.8
2019-Sep-17 12:54 301 2 gusting 4 27.2
2019-Sep-17 12:44 302 1 gusting 3 27.2
2019-Sep-17 12:34 302 1 gusting 3 26.7
2019-Sep-17 12:24 288 2 gusting 4 26.7
2019-Sep-17 12:14 338 0 gusting 3 26.1
2019-Sep-17 12:04 350 0 gusting 2 26.1
2019-Sep-17 11:54 350 1 gusting 3 26.1
2019-Sep-17 11:44 355 1 gusting 2 25.6
2019-Sep-17 11:34 355 1 gusting 2 25.6
2019-Sep-17 11:24 25.6
2019-Sep-17 11:14 014 0 gusting 2 25.6
2019-Sep-17 11:04 014 25.6
2019-Sep-17 10:54 014 0 gusting 2 25.6
2019-Sep-17 10:44 014 0 gusting 1 25.6
2019-Sep-17 10:34 014 1 gusting 2 25.6
2019-Sep-17 10:24 015 1 gusting 3 25.0
2019-Sep-17 10:14 025 0 gusting 2 25.0
2019-Sep-17 10:04 025 0 gusting 1 25.0
2019-Sep-17 09:54 025 0 gusting 1 25.0
2019-Sep-17 09:44 025 0 gusting 1 25.0
2019-Sep-17 09:34 025 1 gusting 1 25.6
2019-Sep-17 09:24 025 0 gusting 1 25.6
2019-Sep-17 09:14 025 1 gusting 1 25.6
2019-Sep-17 09:04 025 1 gusting 1 25.6
2019-Sep-17 08:54 025 1 gusting 2 25.6
2019-Sep-17 08:44 025 1 gusting 2 25.6
2019-Sep-17 08:34 025 0 gusting 1 25.6
2019-Sep-17 08:24 025 1 gusting 1 25.6
2019-Sep-17 08:14 025 1 gusting 2 25.6
2019-Sep-17 08:04 025 0 gusting 1 25.6